sensor_id;sensor_type;location;lat;lon;timestamp;P1;durP1;ratioP1;P2;durP2;ratioP2
16824;SDS011;8529;48.108;-1.706;2023-03-01T00:01:43;24.73;;;15.93;;
16824;SDS011;8529;48.108;-1.706;2023-03-01T00:04:16;27.03;;;15.07;;
16824;SDS011;8529;48.108;-1.706;2023-03-01T00:06:45;25.23;;;15.20;;
16824;SDS011;8529;48.108;-1.706;2023-03-01T00:09:15;29.30;;;16.20;;
16824;SDS011;8529;48.108;-1.706;2023-03-01T00:11:49;26.70;;;15.17;;
16824;SDS011;8529;48.108;-1.706;2023-03-01T00:14:18;28.63;;;15.83;;
16824;SDS011;8529;48.108;-1.706;2023-03-01T00:16:51;26.47;;;15.40;;
16824;SDS011;8529;48.108;-1.706;2023-03-01T00:19:22;25.30;;;16.07;;
16824;SDS011;8529;48.108;-1.706;2023-03-01T00:21:51;24.27;;;14.60;;
16824;SDS011;8529;48.108;-1.706;2023-03-01T00:24:22;26.53;;;15.57;;
16824;SDS011;8529;48.108;-1.706;2023-03-01T00:26:52;24.87;;;14.50;;
16824;SDS011;8529;48.108;-1.706;2023-03-01T00:29:21;25.47;;;15.13;;
16824;SDS011;8529;48.108;-1.706;2023-03-01T00:31:50;29.67;;;16.57;;
16824;SDS011;8529;48.108;-1.706;2023-03-01T00:34:22;26.23;;;15.30;;
16824;SDS011;8529;48.108;-1.706;2023-03-01T00:36:49;27.00;;;15.80;;
16824;SDS011;8529;48.108;-1.706;2023-03-01T00:39:16;27.77;;;16.70;;
16824;SDS011;8529;48.108;-1.706;2023-03-01T00:41:42;24.30;;;15.23;;
16824;SDS011;8529;48.108;-1.706;2023-03-01T00:44:09;27.33;;;15.80;;
16824;SDS011;8529;48.108;-1.706;2023-03-01T00:46:38;25.13;;;16.03;;
16824;SDS011;8529;48.108;-1.706;2023-03-01T00:49:05;26.67;;;15.67;;
16824;SDS011;8529;48.108;-1.706;2023-03-01T00:51:32;26.93;;;16.67;;
16824;SDS011;8529;48.108;-1.706;2023-03-01T00:54:00;24.53;;;14.33;;
16824;SDS011;8529;48.108;-1.706;2023-03-01T00:56:27;25.27;;;15.83;;
16824;SDS011;8529;48.108;-1.706;2023-03-01T00:58:55;30.70;;;16.70;;
16824;SDS011;8529;48.108;-1.706;2023-03-01T01:01:23;25.93;;;15.67;;
16824;SDS011;8529;48.108;-1.706;2023-03-01T01:03:54;24.67;;;15.63;;
16824;SDS011;8529;48.108;-1.706;2023-03-01T01:06:23;26.73;;;16.63;;
16824;SDS011;8529;48.108;-1.706;2023-03-01T01:08:52;28.03;;;16.37;;
16824;SDS011;8529;48.108;-1.706;2023-03-01T01:11:21;23.30;;;14.30;;
16824;SDS011;8529;48.108;-1.706;2023-03-01T01:13:49;28.70;;;16.73;;
16824;SDS011;8529;48.108;-1.706;2023-03-01T01:16:17;27.60;;;16.47;;
16824;SDS011;8529;48.108;-1.706;2023-03-01T01:18:45;25.43;;;15.77;;
16824;SDS011;8529;48.108;-1.706;2023-03-01T01:21:14;27.13;;;16.23;;
16824;SDS011;8529;48.108;-1.706;2023-03-01T01:23:42;31.10;;;17.00;;
16824;SDS011;8529;48.108;-1.706;2023-03-01T01:26:11;26.03;;;16.53;;
16824;SDS011;8529;48.108;-1.706;2023-03-01T01:28:40;30.50;;;17.00;;
16824;SDS011;8529;48.108;-1.706;2023-03-01T01:31:07;28.03;;;16.37;;
16824;SDS011;8529;48.108;-1.706;2023-03-01T01:33:34;28.40;;;16.33;;
16824;SDS011;8529;48.108;-1.706;2023-03-01T01:36:02;27.53;;;16.87;;
16824;SDS011;8529;48.108;-1.706;2023-03-01T01:38:31;26.50;;;16.73;;
16824;SDS011;8529;48.108;-1.706;2023-03-01T01:40:58;24.63;;;15.30;;
16824;SDS011;8529;48.108;-1.706;2023-03-01T01:43:27;30.37;;;17.27;;
16824;SDS011;8529;48.108;-1.706;2023-03-01T01:45:55;29.53;;;16.43;;
16824;SDS011;8529;48.108;-1.706;2023-03-01T01:48:27;31.63;;;17.43;;
16824;SDS011;8529;48.108;-1.706;2023-03-01T01:51:06;24.90;;;15.40;;
16824;SDS011;8529;48.108;-1.706;2023-03-01T01:53:38;27.87;;;16.67;;
16824;SDS011;8529;48.108;-1.706;2023-03-01T01:56:06;27.27;;;16.33;;
16824;SDS011;8529;48.108;-1.706;2023-03-01T01:58:35;25.87;;;16.50;;
16824;SDS011;8529;48.108;-1.706;2023-03-01T02:01:03;26.50;;;16.10;;
16824;SDS011;8529;48.108;-1.706;2023-03-01T02:03:31;29.17;;;17.37;;
16824;SDS011;8529;48.108;-1.706;2023-03-01T02:06:03;26.67;;;17.30;;
16824;SDS011;8529;48.108;-1.706;2023-03-01T02:08:34;28.17;;;16.50;;
16824;SDS011;8529;48.108;-1.706;2023-03-01T02:11:05;27.43;;;16.17;;
16824;SDS011;8529;48.108;-1.706;2023-03-01T02:13:33;27.20;;;16.60;;
16824;SDS011;8529;48.108;-1.706;2023-03-01T02:16:02;24.53;;;16.27;;
16824;SDS011;8529;48.108;-1.706;2023-03-01T02:18:30;29.40;;;17.77;;
16824;SDS011;8529;48.108;-1.706;2023-03-01T02:21:03;27.87;;;16.57;;
16824;SDS011;8529;48.108;-1.706;2023-03-01T02:23:37;24.57;;;15.73;;
16824;SDS011;8529;48.108;-1.706;2023-03-01T02:26:07;28.23;;;16.97;;
16824;SDS011;8529;48.108;-1.706;2023-03-01T02:28:40;28.07;;;16.43;;
16824;SDS011;8529;48.108;-1.706;2023-03-01T02:31:09;25.13;;;15.60;;
16824;SDS011;8529;48.108;-1.706;2023-03-01T02:33:58;24.17;;;15.30;;
16824;SDS011;8529;48.108;-1.706;2023-03-01T02:36:26;28.03;;;15.93;;
16824;SDS011;8529;48.108;-1.706;2023-03-01T02:38:57;27.37;;;15.33;;
16824;SDS011;8529;48.108;-1.706;2023-03-01T02:41:27;27.10;;;16.13;;
16824;SDS011;8529;48.108;-1.706;2023-03-01T02:43:59;23.80;;;15.30;;
16824;SDS011;8529;48.108;-1.706;2023-03-01T02:46:26;24.23;;;15.50;;
16824;SDS011;8529;48.108;-1.706;2023-03-01T02:48:53;26.80;;;14.93;;
16824;SDS011;8529;48.108;-1.706;2023-03-01T02:51:26;24.90;;;14.40;;
16824;SDS011;8529;48.108;-1.706;2023-03-01T02:54:12;24.93;;;14.47;;
16824;SDS011;8529;48.108;-1.706;2023-03-01T02:56:44;26.70;;;14.97;;
16824;SDS011;8529;48.108;-1.706;2023-03-01T02:59:15;26.87;;;15.60;;
16824;SDS011;8529;48.108;-1.706;2023-03-01T03:01:44;28.90;;;16.07;;
16824;SDS011;8529;48.108;-1.706;2023-03-01T03:04:13;25.07;;;14.60;;
16824;SDS011;8529;48.108;-1.706;2023-03-01T03:06:43;25.03;;;14.80;;
16824;SDS011;8529;48.108;-1.706;2023-03-01T03:09:10;26.57;;;15.47;;
16824;SDS011;8529;48.108;-1.706;2023-03-01T03:11:38;22.73;;;14.63;;
16824;SDS011;8529;48.108;-1.706;2023-03-01T03:14:06;26.00;;;15.53;;
16824;SDS011;8529;48.108;-1.706;2023-03-01T03:16:38;25.10;;;14.97;;
16824;SDS011;8529;48.108;-1.706;2023-03-01T03:19:06;24.30;;;15.30;;
16824;SDS011;8529;48.108;-1.706;2023-03-01T03:21:33;21.70;;;14.60;;
16824;SDS011;8529;48.108;-1.706;2023-03-01T03:24:01;23.70;;;14.23;;
16824;SDS011;8529;48.108;-1.706;2023-03-01T03:26:28;23.63;;;14.60;;
16824;SDS011;8529;48.108;-1.706;2023-03-01T03:28:56;23.77;;;14.70;;
16824;SDS011;8529;48.108;-1.706;2023-03-01T03:31:23;24.77;;;14.53;;
16824;SDS011;8529;48.108;-1.706;2023-03-01T03:33:52;25.63;;;15.73;;
16824;SDS011;8529;48.108;-1.706;2023-03-01T03:36:20;24.10;;;14.87;;
16824;SDS011;8529;48.108;-1.706;2023-03-01T03:38:48;24.80;;;14.90;;
16824;SDS011;8529;48.108;-1.706;2023-03-01T03:41:15;22.87;;;15.27;;
16824;SDS011;8529;48.108;-1.706;2023-03-01T03:43:42;21.93;;;13.77;;
16824;SDS011;8529;48.108;-1.706;2023-03-01T03:46:09;24.77;;;13.87;;
16824;SDS011;8529;48.108;-1.706;2023-03-01T03:48:38;22.37;;;14.60;;
16824;SDS011;8529;48.108;-1.706;2023-03-01T03:51:09;22.17;;;13.90;;
16824;SDS011;8529;48.108;-1.706;2023-03-01T03:53:36;24.23;;;14.43;;
16824;SDS011;8529;48.108;-1.706;2023-03-01T03:56:04;23.83;;;13.77;;
16824;SDS011;8529;48.108;-1.706;2023-03-01T03:58:31;23.53;;;13.93;;
16824;SDS011;8529;48.108;-1.706;2023-03-01T04:00:58;23.13;;;15.37;;
16824;SDS011;8529;48.108;-1.706;2023-03-01T04:03:27;25.40;;;15.20;;
16824;SDS011;8529;48.108;-1.706;2023-03-01T04:05:56;21.97;;;14.30;;
16824;SDS011;8529;48.108;-1.706;2023-03-01T04:08:25;22.70;;;14.13;;
16824;SDS011;8529;48.108;-1.706;2023-03-01T04:10:55;25.03;;;14.60;;
16824;SDS011;8529;48.108;-1.706;2023-03-01T04:13:24;20.47;;;14.13;;
16824;SDS011;8529;48.108;-1.706;2023-03-01T04:15:52;22.87;;;13.43;;
16824;SDS011;8529;48.108;-1.706;2023-03-01T04:18:20;19.27;;;13.17;;
16824;SDS011;8529;48.108;-1.706;2023-03-01T04:20:48;23.57;;;14.40;;
16824;SDS011;8529;48.108;-1.706;2023-03-01T04:23:18;24.97;;;13.90;;
16824;SDS011;8529;48.108;-1.706;2023-03-01T04:25:48;19.73;;;13.17;;
16824;SDS011;8529;48.108;-1.706;2023-03-01T04:28:19;21.33;;;13.70;;
16824;SDS011;8529;48.108;-1.706;2023-03-01T04:30:46;20.57;;;13.47;;
16824;SDS011;8529;48.108;-1.706;2023-03-01T04:33:13;25.23;;;14.87;;
16824;SDS011;8529;48.108;-1.706;2023-03-01T04:35:40;23.40;;;13.80;;
16824;SDS011;8529;48.108;-1.706;2023-03-01T04:38:08;19.87;;;12.97;;
16824;SDS011;8529;48.108;-1.706;2023-03-01T04:40:35;20.70;;;13.90;;
16824;SDS011;8529;48.108;-1.706;2023-03-01T04:43:04;22.17;;;14.17;;
16824;SDS011;8529;48.108;-1.706;2023-03-01T04:45:32;22.40;;;13.70;;
16824;SDS011;8529;48.108;-1.706;2023-03-01T04:48:00;25.37;;;14.27;;
16824;SDS011;8529;48.108;-1.706;2023-03-01T04:50:27;20.63;;;13.40;;
16824;SDS011;8529;48.108;-1.706;2023-03-01T04:52:54;20.60;;;13.23;;
16824;SDS011;8529;48.108;-1.706;2023-03-01T04:55:23;23.07;;;14.23;;
16824;SDS011;8529;48.108;-1.706;2023-03-01T04:57:51;22.10;;;14.97;;
16824;SDS011;8529;48.108;-1.706;2023-03-01T05:00:20;22.03;;;13.80;;
16824;SDS011;8529;48.108;-1.706;2023-03-01T05:02:49;23.90;;;14.47;;
16824;SDS011;8529;48.108;-1.706;2023-03-01T05:05:20;21.50;;;13.83;;
16824;SDS011;8529;48.108;-1.706;2023-03-01T05:07:50;22.77;;;13.97;;
16824;SDS011;8529;48.108;-1.706;2023-03-01T05:10:18;22.63;;;14.20;;
16824;SDS011;8529;48.108;-1.706;2023-03-01T05:12:45;23.80;;;14.03;;
16824;SDS011;8529;48.108;-1.706;2023-03-01T05:15:12;20.53;;;12.70;;
16824;SDS011;8529;48.108;-1.706;2023-03-01T05:17:41;22.80;;;14.23;;
16824;SDS011;8529;48.108;-1.706;2023-03-01T05:20:08;22.03;;;14.27;;
16824;SDS011;8529;48.108;-1.706;2023-03-01T05:22:36;26.03;;;13.27;;
16824;SDS011;8529;48.108;-1.706;2023-03-01T05:25:03;19.40;;;13.27;;
16824;SDS011;8529;48.108;-1.706;2023-03-01T05:27:32;20.93;;;13.50;;
16824;SDS011;8529;48.108;-1.706;2023-03-01T05:29:59;17.93;;;12.40;;
16824;SDS011;8529;48.108;-1.706;2023-03-01T05:32:38;22.63;;;12.80;;
16824;SDS011;8529;48.108;-1.706;2023-03-01T05:35:09;21.23;;;13.23;;
16824;SDS011;8529;48.108;-1.706;2023-03-01T05:37:38;20.40;;;12.53;;
16824;SDS011;8529;48.108;-1.706;2023-03-01T05:40:06;21.03;;;12.97;;
16824;SDS011;8529;48.108;-1.706;2023-03-01T05:42:40;19.23;;;11.90;;
16824;SDS011;8529;48.108;-1.706;2023-03-01T05:45:09;22.60;;;12.83;;
16824;SDS011;8529;48.108;-1.706;2023-03-01T05:47:37;20.20;;;12.80;;
16824;SDS011;8529;48.108;-1.706;2023-03-01T05:50:10;21.57;;;12.93;;
16824;SDS011;8529;48.108;-1.706;2023-03-01T05:52:38;19.13;;;12.80;;
16824;SDS011;8529;48.108;-1.706;2023-03-01T05:55:05;21.63;;;13.27;;
16824;SDS011;8529;48.108;-1.706;2023-03-01T05:57:33;23.77;;;13.17;;
16824;SDS011;8529;48.108;-1.706;2023-03-01T05:59:59;20.60;;;13.10;;
16824;SDS011;8529;48.108;-1.706;2023-03-01T06:02:26;20.97;;;12.53;;
16824;SDS011;8529;48.108;-1.706;2023-03-01T06:04:54;16.03;;;11.50;;
16824;SDS011;8529;48.108;-1.706;2023-03-01T06:07:22;18.60;;;12.33;;
16824;SDS011;8529;48.108;-1.706;2023-03-01T06:09:49;18.37;;;12.03;;
16824;SDS011;8529;48.108;-1.706;2023-03-01T06:12:16;17.43;;;12.10;;
16824;SDS011;8529;48.108;-1.706;2023-03-01T06:14:44;17.33;;;12.17;;
16824;SDS011;8529;48.108;-1.706;2023-03-01T06:17:12;18.77;;;11.57;;
16824;SDS011;8529;48.108;-1.706;2023-03-01T06:19:39;18.40;;;12.17;;
16824;SDS011;8529;48.108;-1.706;2023-03-01T06:22:06;19.97;;;12.40;;
16824;SDS011;8529;48.108;-1.706;2023-03-01T06:24:35;18.83;;;11.87;;
16824;SDS011;8529;48.108;-1.706;2023-03-01T06:27:02;22.33;;;13.30;;
16824;SDS011;8529;48.108;-1.706;2023-03-01T06:29:29;18.47;;;12.20;;
16824;SDS011;8529;48.108;-1.706;2023-03-01T06:31:55;20.10;;;13.03;;
16824;SDS011;8529;48.108;-1.706;2023-03-01T06:34:22;24.20;;;14.10;;
16824;SDS011;8529;48.108;-1.706;2023-03-01T06:36:49;22.07;;;12.37;;
16824;SDS011;8529;48.108;-1.706;2023-03-01T06:39:16;25.77;;;13.90;;
16824;SDS011;8529;48.108;-1.706;2023-03-01T06:41:44;24.57;;;13.63;;
16824;SDS011;8529;48.108;-1.706;2023-03-01T06:44:11;17.13;;;11.13;;
16824;SDS011;8529;48.108;-1.706;2023-03-01T06:46:38;18.80;;;11.70;;
16824;SDS011;8529;48.108;-1.706;2023-03-01T06:49:05;20.17;;;11.50;;
16824;SDS011;8529;48.108;-1.706;2023-03-01T06:51:34;21.33;;;12.10;;
16824;SDS011;8529;48.108;-1.706;2023-03-01T06:54:01;19.47;;;11.60;;
16824;SDS011;8529;48.108;-1.706;2023-03-01T06:56:29;20.27;;;12.30;;
16824;SDS011;8529;48.108;-1.706;2023-03-01T06:58:57;16.83;;;10.77;;
16824;SDS011;8529;48.108;-1.706;2023-03-01T07:01:24;17.37;;;11.17;;
16824;SDS011;8529;48.108;-1.706;2023-03-01T07:03:51;18.30;;;11.20;;
16824;SDS011;8529;48.108;-1.706;2023-03-01T07:06:18;18.90;;;11.03;;
16824;SDS011;8529;48.108;-1.706;2023-03-01T07:08:45;21.27;;;11.57;;
16824;SDS011;8529;48.108;-1.706;2023-03-01T07:11:12;20.50;;;11.50;;
16824;SDS011;8529;48.108;-1.706;2023-03-01T07:13:39;20.13;;;11.60;;
16824;SDS011;8529;48.108;-1.706;2023-03-01T07:16:08;18.00;;;11.17;;
16824;SDS011;8529;48.108;-1.706;2023-03-01T07:18:35;18.77;;;11.23;;
16824;SDS011;8529;48.108;-1.706;2023-03-01T07:21:05;18.40;;;11.30;;
16824;SDS011;8529;48.108;-1.706;2023-03-01T07:23:33;18.90;;;11.87;;
16824;SDS011;8529;48.108;-1.706;2023-03-01T07:26:00;21.20;;;11.57;;
16824;SDS011;8529;48.108;-1.706;2023-03-01T07:28:27;16.70;;;11.00;;
16824;SDS011;8529;48.108;-1.706;2023-03-01T07:30:54;17.60;;;11.00;;
16824;SDS011;8529;48.108;-1.706;2023-03-01T07:33:22;20.17;;;11.57;;
16824;SDS011;8529;48.108;-1.706;2023-03-01T07:35:55;19.93;;;11.60;;
16824;SDS011;8529;48.108;-1.706;2023-03-01T07:38:22;19.43;;;10.87;;
16824;SDS011;8529;48.108;-1.706;2023-03-01T07:40:49;16.33;;;10.43;;
16824;SDS011;8529;48.108;-1.706;2023-03-01T07:43:16;19.40;;;11.10;;
16824;SDS011;8529;48.108;-1.706;2023-03-01T07:45:43;17.23;;;10.87;;
16824;SDS011;8529;48.108;-1.706;2023-03-01T07:48:10;23.10;;;12.17;;
16824;SDS011;8529;48.108;-1.706;2023-03-01T07:50:38;17.80;;;11.40;;
16824;SDS011;8529;48.108;-1.706;2023-03-01T07:53:05;19.20;;;12.00;;
16824;SDS011;8529;48.108;-1.706;2023-03-01T07:55:32;20.50;;;11.20;;
16824;SDS011;8529;48.108;-1.706;2023-03-01T07:57:59;18.93;;;11.47;;
16824;SDS011;8529;48.108;-1.706;2023-03-01T08:00:26;18.03;;;11.57;;
16824;SDS011;8529;48.108;-1.706;2023-03-01T08:02:53;19.30;;;11.37;;
16824;SDS011;8529;48.108;-1.706;2023-03-01T08:05:19;19.40;;;11.67;;
16824;SDS011;8529;48.108;-1.706;2023-03-01T08:07:48;18.03;;;11.63;;
16824;SDS011;8529;48.108;-1.706;2023-03-01T08:10:15;20.23;;;11.93;;
16824;SDS011;8529;48.108;-1.706;2023-03-01T08:12:42;19.83;;;11.63;;
16824;SDS011;8529;48.108;-1.706;2023-03-01T08:15:10;18.63;;;11.57;;
16824;SDS011;8529;48.108;-1.706;2023-03-01T08:17:37;19.23;;;10.03;;
16824;SDS011;8529;48.108;-1.706;2023-03-01T08:20:04;18.40;;;10.43;;
16824;SDS011;8529;48.108;-1.706;2023-03-01T08:22:32;19.73;;;10.87;;
16824;SDS011;8529;48.108;-1.706;2023-03-01T08:25:00;18.50;;;11.33;;
16824;SDS011;8529;48.108;-1.706;2023-03-01T08:27:27;17.40;;;10.90;;
16824;SDS011;8529;48.108;-1.706;2023-03-01T08:29:54;18.83;;;10.37;;
16824;SDS011;8529;48.108;-1.706;2023-03-01T08:32:21;17.07;;;11.30;;
16824;SDS011;8529;48.108;-1.706;2023-03-01T08:34:48;19.50;;;11.43;;
16824;SDS011;8529;48.108;-1.706;2023-03-01T08:37:15;17.47;;;11.30;;
16824;SDS011;8529;48.108;-1.706;2023-03-01T08:39:42;19.00;;;10.77;;
16824;SDS011;8529;48.108;-1.706;2023-03-01T08:42:10;19.03;;;11.60;;
16824;SDS011;8529;48.108;-1.706;2023-03-01T08:44:37;19.47;;;11.30;;
16824;SDS011;8529;48.108;-1.706;2023-03-01T08:47:03;18.43;;;10.33;;
16824;SDS011;8529;48.108;-1.706;2023-03-01T08:49:30;17.67;;;10.13;;
16824;SDS011;8529;48.108;-1.706;2023-03-01T08:51:58;16.83;;;10.07;;
16824;SDS011;8529;48.108;-1.706;2023-03-01T08:54:26;16.93;;;11.33;;
16824;SDS011;8529;48.108;-1.706;2023-03-01T08:56:53;16.77;;;10.77;;
16824;SDS011;8529;48.108;-1.706;2023-03-01T08:59:22;18.73;;;10.87;;
16824;SDS011;8529;48.108;-1.706;2023-03-01T09:01:48;18.13;;;10.90;;
16824;SDS011;8529;48.108;-1.706;2023-03-01T09:04:15;21.17;;;10.43;;
16824;SDS011;8529;48.108;-1.706;2023-03-01T09:06:42;17.83;;;10.70;;
16824;SDS011;8529;48.108;-1.706;2023-03-01T09:09:12;16.00;;;9.93;;
16824;SDS011;8529;48.108;-1.706;2023-03-01T09:11:41;18.13;;;11.07;;
16824;SDS011;8529;48.108;-1.706;2023-03-01T09:14:08;17.83;;;10.30;;
16824;SDS011;8529;48.108;-1.706;2023-03-01T09:16:36;17.37;;;10.30;;
16824;SDS011;8529;48.108;-1.706;2023-03-01T09:19:03;16.90;;;10.33;;
16824;SDS011;8529;48.108;-1.706;2023-03-01T09:21:30;17.60;;;10.93;;
16824;SDS011;8529;48.108;-1.706;2023-03-01T09:23:57;16.43;;;10.13;;
16824;SDS011;8529;48.108;-1.706;2023-03-01T09:26:24;18.37;;;9.87;;
16824;SDS011;8529;48.108;-1.706;2023-03-01T09:28:53;18.43;;;11.03;;
16824;SDS011;8529;48.108;-1.706;2023-03-01T09:31:22;17.43;;;10.10;;
16824;SDS011;8529;48.108;-1.706;2023-03-01T09:33:52;15.37;;;9.97;;
16824;SDS011;8529;48.108;-1.706;2023-03-01T09:36:20;15.17;;;10.53;;
16824;SDS011;8529;48.108;-1.706;2023-03-01T09:38:48;18.30;;;10.33;;
16824;SDS011;8529;48.108;-1.706;2023-03-01T09:41:32;17.10;;;9.80;;
16824;SDS011;8529;48.108;-1.706;2023-03-01T09:44:10;23.63;;;10.67;;
16824;SDS011;8529;48.108;-1.706;2023-03-01T09:46:45;14.37;;;9.17;;
16824;SDS011;8529;48.108;-1.706;2023-03-01T09:49:14;16.13;;;10.40;;
16824;SDS011;8529;48.108;-1.706;2023-03-01T09:51:47;17.37;;;10.90;;
16824;SDS011;8529;48.108;-1.706;2023-03-01T09:54:21;19.57;;;11.50;;
16824;SDS011;8529;48.108;-1.706;2023-03-01T09:56:53;19.20;;;11.77;;
16824;SDS011;8529;48.108;-1.706;2023-03-01T09:59:28;16.80;;;11.03;;
16824;SDS011;8529;48.108;-1.706;2023-03-01T10:02:00;16.93;;;9.57;;
16824;SDS011;8529;48.108;-1.706;2023-03-01T10:04:44;18.00;;;10.67;;
16824;SDS011;8529;48.108;-1.706;2023-03-01T10:07:16;17.13;;;10.80;;
16824;SDS011;8529;48.108;-1.706;2023-03-01T10:09:49;19.47;;;11.10;;
16824;SDS011;8529;48.108;-1.706;2023-03-01T10:12:17;18.53;;;10.77;;
16824;SDS011;8529;48.108;-1.706;2023-03-01T10:14:48;17.67;;;10.97;;
16824;SDS011;8529;48.108;-1.706;2023-03-01T10:17:24;21.00;;;10.33;;
16824;SDS011;8529;48.108;-1.706;2023-03-01T10:19:57;18.10;;;10.50;;
16824;SDS011;8529;48.108;-1.706;2023-03-01T10:22:47;15.57;;;9.70;;
16824;SDS011;8529;48.108;-1.706;2023-03-01T10:25:20;18.53;;;10.83;;
16824;SDS011;8529;48.108;-1.706;2023-03-01T10:28:05;16.80;;;10.20;;
16824;SDS011;8529;48.108;-1.706;2023-03-01T10:30:41;18.73;;;10.23;;
16824;SDS011;8529;48.108;-1.706;2023-03-01T10:33:10;17.77;;;10.57;;
16824;SDS011;8529;48.108;-1.706;2023-03-01T10:35:44;16.50;;;10.03;;
16824;SDS011;8529;48.108;-1.706;2023-03-01T10:38:12;19.67;;;10.80;;
16824;SDS011;8529;48.108;-1.706;2023-03-01T10:40:50;16.80;;;10.50;;
16824;SDS011;8529;48.108;-1.706;2023-03-01T10:43:18;19.87;;;11.63;;
16824;SDS011;8529;48.108;-1.706;2023-03-01T10:45:45;24.83;;;13.87;;
16824;SDS011;8529;48.108;-1.706;2023-03-01T10:48:13;21.30;;;11.63;;
16824;SDS011;8529;48.108;-1.706;2023-03-01T10:50:43;23.80;;;13.20;;
16824;SDS011;8529;48.108;-1.706;2023-03-01T10:56:00;16.43;;;10.50;;
16824;SDS011;8529;48.108;-1.706;2023-03-01T10:58:29;26.73;;;14.57;;
16824;SDS011;8529;48.108;-1.706;2023-03-01T11:00:58;24.47;;;12.77;;
16824;SDS011;8529;48.108;-1.706;2023-03-01T11:03:27;21.10;;;11.50;;
16824;SDS011;8529;48.108;-1.706;2023-03-01T11:06:01;24.70;;;13.33;;
16824;SDS011;8529;48.108;-1.706;2023-03-01T11:08:34;24.30;;;12.67;;
16824;SDS011;8529;48.108;-1.706;2023-03-01T11:11:08;25.40;;;14.13;;
16824;SDS011;8529;48.108;-1.706;2023-03-01T11:13:51;19.47;;;12.13;;
16824;SDS011;8529;48.108;-1.706;2023-03-01T11:16:31;22.57;;;14.73;;
16824;SDS011;8529;48.108;-1.706;2023-03-01T11:19:03;22.27;;;12.83;;
16824;SDS011;8529;48.108;-1.706;2023-03-01T11:21:42;20.33;;;11.70;;
16824;SDS011;8529;48.108;-1.706;2023-03-01T11:24:29;23.53;;;12.17;;
16824;SDS011;8529;48.108;-1.706;2023-03-01T11:27:01;20.87;;;12.63;;
16824;SDS011;8529;48.108;-1.706;2023-03-01T11:29:32;22.70;;;12.63;;
16824;SDS011;8529;48.108;-1.706;2023-03-01T11:32:05;20.57;;;13.10;;
16824;SDS011;8529;48.108;-1.706;2023-03-01T11:34:37;22.47;;;13.13;;
16824;SDS011;8529;48.108;-1.706;2023-03-01T11:37:12;22.43;;;13.50;;
16824;SDS011;8529;48.108;-1.706;2023-03-01T11:39:54;20.70;;;12.93;;
16824;SDS011;8529;48.108;-1.706;2023-03-01T11:42:28;22.47;;;12.37;;
16824;SDS011;8529;48.108;-1.706;2023-03-01T11:45:06;20.23;;;12.37;;
16824;SDS011;8529;48.108;-1.706;2023-03-01T11:47:42;53.13;;;18.60;;
16824;SDS011;8529;48.108;-1.706;2023-03-01T11:50:25;67.97;;;19.43;;
16824;SDS011;8529;48.108;-1.706;2023-03-01T11:53:00;37.40;;;19.73;;
16824;SDS011;8529;48.108;-1.706;2023-03-01T11:55:54;20.77;;;13.40;;
16824;SDS011;8529;48.108;-1.706;2023-03-01T11:58:34;24.37;;;13.20;;
16824;SDS011;8529;48.108;-1.706;2023-03-01T12:01:19;23.47;;;12.60;;
16824;SDS011;8529;48.108;-1.706;2023-03-01T12:06:57;33.50;;;15.63;;
16824;SDS011;8529;48.108;-1.706;2023-03-01T12:12:30;28.13;;;16.63;;
16824;SDS011;8529;48.108;-1.706;2023-03-01T12:15:17;19.13;;;11.50;;
16824;SDS011;8529;48.108;-1.706;2023-03-01T12:18:05;19.47;;;12.33;;
16824;SDS011;8529;48.108;-1.706;2023-03-01T12:21:02;18.07;;;11.47;;
16824;SDS011;8529;48.108;-1.706;2023-03-01T12:26:41;24.07;;;12.27;;
16824;SDS011;8529;48.108;-1.706;2023-03-01T12:29:20;20.50;;;12.20;;
16824;SDS011;8529;48.108;-1.706;2023-03-01T12:35:10;17.40;;;10.90;;
16824;SDS011;8529;48.108;-1.706;2023-03-01T12:37:53;37.07;;;15.40;;
16824;SDS011;8529;48.108;-1.706;2023-03-01T12:43:19;18.20;;;10.87;;
16824;SDS011;8529;48.108;-1.706;2023-03-01T12:46:38;16.17;;;10.23;;
16824;SDS011;8529;48.108;-1.706;2023-03-01T12:49:12;13.77;;;9.37;;
16824;SDS011;8529;48.108;-1.706;2023-03-01T12:51:42;12.70;;;9.40;;
16824;SDS011;8529;48.108;-1.706;2023-03-01T12:54:19;17.57;;;9.97;;
16824;SDS011;8529;48.108;-1.706;2023-03-01T12:56:52;15.00;;;9.13;;
16824;SDS011;8529;48.108;-1.706;2023-03-01T12:59:23;14.53;;;8.93;;
16824;SDS011;8529;48.108;-1.706;2023-03-01T13:01:56;11.90;;;8.10;;
16824;SDS011;8529;48.108;-1.706;2023-03-01T13:04:33;10.93;;;7.67;;
16824;SDS011;8529;48.108;-1.706;2023-03-01T13:07:13;13.90;;;7.70;;
16824;SDS011;8529;48.108;-1.706;2023-03-01T13:09:49;11.57;;;7.90;;
16824;SDS011;8529;48.108;-1.706;2023-03-01T13:12:42;12.67;;;7.27;;
16824;SDS011;8529;48.108;-1.706;2023-03-01T13:15:25;25.70;;;12.13;;
16824;SDS011;8529;48.108;-1.706;2023-03-01T13:18:00;39.87;;;19.17;;
16824;SDS011;8529;48.108;-1.706;2023-03-01T13:20:30;22.93;;;11.50;;
16824;SDS011;8529;48.108;-1.706;2023-03-01T13:23:10;37.20;;;14.20;;
16824;SDS011;8529;48.108;-1.706;2023-03-01T13:26:06;12.17;;;7.27;;
16824;SDS011;8529;48.108;-1.706;2023-03-01T13:28:46;30.33;;;12.20;;
16824;SDS011;8529;48.108;-1.706;2023-03-01T13:34:43;8.80;;;6.17;;
16824;SDS011;8529;48.108;-1.706;2023-03-01T13:37:21;10.67;;;6.47;;
16824;SDS011;8529;48.108;-1.706;2023-03-01T13:39:54;9.13;;;6.30;;
16824;SDS011;8529;48.108;-1.706;2023-03-01T13:42:33;7.17;;;5.30;;
16824;SDS011;8529;48.108;-1.706;2023-03-01T13:45:24;18.87;;;7.80;;
16824;SDS011;8529;48.108;-1.706;2023-03-01T13:48:01;9.40;;;5.83;;
16824;SDS011;8529;48.108;-1.706;2023-03-01T13:50:38;14.77;;;8.77;;
16824;SDS011;8529;48.108;-1.706;2023-03-01T13:53:14;8.90;;;6.20;;
16824;SDS011;8529;48.108;-1.706;2023-03-01T13:55:44;20.83;;;10.10;;
16824;SDS011;8529;48.108;-1.706;2023-03-01T13:58:15;10.07;;;6.30;;
16824;SDS011;8529;48.108;-1.706;2023-03-01T14:00:46;8.50;;;6.10;;
16824;SDS011;8529;48.108;-1.706;2023-03-01T14:03:14;13.20;;;7.83;;
16824;SDS011;8529;48.108;-1.706;2023-03-01T14:05:56;12.73;;;7.83;;
16824;SDS011;8529;48.108;-1.706;2023-03-01T14:08:26;13.60;;;7.10;;
16824;SDS011;8529;48.108;-1.706;2023-03-01T14:10:59;8.63;;;5.30;;
16824;SDS011;8529;48.108;-1.706;2023-03-01T14:13:47;9.23;;;6.43;;
16824;SDS011;8529;48.108;-1.706;2023-03-01T14:16:24;9.73;;;5.73;;
16824;SDS011;8529;48.108;-1.706;2023-03-01T14:19:01;9.37;;;5.33;;
16824;SDS011;8529;48.108;-1.706;2023-03-01T14:21:42;11.97;;;6.33;;
16824;SDS011;8529;48.108;-1.706;2023-03-01T14:24:15;10.17;;;5.70;;
16824;SDS011;8529;48.108;-1.706;2023-03-01T14:26:44;9.17;;;5.83;;
16824;SDS011;8529;48.108;-1.706;2023-03-01T14:29:23;10.57;;;6.20;;
16824;SDS011;8529;48.108;-1.706;2023-03-01T14:31:51;10.23;;;5.90;;
16824;SDS011;8529;48.108;-1.706;2023-03-01T14:34:18;10.30;;;6.53;;
16824;SDS011;8529;48.108;-1.706;2023-03-01T14:36:48;9.07;;;5.87;;
16824;SDS011;8529;48.108;-1.706;2023-03-01T14:39:18;7.90;;;5.57;;
16824;SDS011;8529;48.108;-1.706;2023-03-01T14:41:49;8.60;;;5.70;;
16824;SDS011;8529;48.108;-1.706;2023-03-01T14:44:17;8.27;;;5.80;;
16824;SDS011;8529;48.108;-1.706;2023-03-01T14:46:51;9.83;;;6.60;;
16824;SDS011;8529;48.108;-1.706;2023-03-01T14:49:20;8.00;;;5.97;;
16824;SDS011;8529;48.108;-1.706;2023-03-01T14:51:51;11.97;;;7.20;;
16824;SDS011;8529;48.108;-1.706;2023-03-01T14:54:21;11.10;;;7.70;;
16824;SDS011;8529;48.108;-1.706;2023-03-01T14:56:52;11.47;;;7.53;;
16824;SDS011;8529;48.108;-1.706;2023-03-01T14:59:20;10.93;;;7.17;;
16824;SDS011;8529;48.108;-1.706;2023-03-01T15:01:48;11.50;;;7.73;;
16824;SDS011;8529;48.108;-1.706;2023-03-01T15:04:16;13.97;;;10.23;;
16824;SDS011;8529;48.108;-1.706;2023-03-01T15:06:46;11.87;;;7.30;;